createdAt,value
2022-10-30T00:00:02.140Z,11.67
2022-10-30T00:02:28.843Z,12.77
2022-10-30T00:04:55.634Z,12.97
2022-10-30T00:07:22.450Z,12.60
2022-10-30T00:09:49.108Z,12.97
2022-10-30T00:12:15.816Z,11.87
2022-10-30T00:14:42.630Z,10.90
2022-10-30T00:17:09.366Z,12.37
2022-10-30T00:19:36.107Z,11.93
2022-10-30T00:24:29.453Z,11.90
2022-10-30T00:26:56.213Z,12.57
2022-10-30T00:29:26.370Z,12.03
2022-10-30T00:31:53.965Z,11.63
2022-10-30T00:34:20.686Z,12.40
2022-10-30T00:36:47.401Z,13.23
2022-10-30T00:39:14.135Z,13.20
2022-10-30T00:41:41.942Z,12.90
2022-10-30T00:44:40.535Z,12.90
2022-10-30T00:47:33.507Z,12.60
2022-10-30T00:50:05.571Z,12.90
2022-10-30T00:52:37.181Z,11.90
2022-10-30T00:55:13.815Z,12.23
2022-10-30T00:57:41.501Z,12.57
2022-10-30T01:00:09.352Z,12.00
2022-10-30T01:02:36.891Z,11.17
2022-10-30T01:05:04.613Z,11.60
2022-10-30T01:07:31.350Z,11.30
2022-10-30T01:09:58.570Z,11.27
2022-10-30T01:12:25.253Z,11.90
2022-10-30T01:14:56.347Z,11.50
2022-10-30T01:18:00.983Z,12.10
2022-10-30T01:20:39.954Z,10.50
2022-10-30T01:23:35.925Z,11.00
2022-10-30T01:26:14.508Z,11.40
2022-10-30T01:29:06.641Z,12.50
2022-10-30T01:32:05.307Z,12.40
2022-10-30T01:35:00.444Z,9.93
2022-10-30T01:37:29.920Z,11.53
2022-10-30T01:39:56.581Z,11.70
2022-10-30T01:42:44.951Z,10.80
2022-10-30T01:45:23.779Z,9.83
2022-10-30T01:48:08.108Z,10.80
2022-10-30T01:51:11.794Z,9.53
2022-10-30T01:54:15.306Z,10.13
2022-10-30T01:57:09.645Z,10.87
2022-10-30T01:59:46.102Z,10.47
2022-10-30T02:02:14.309Z,10.27
2022-10-30T02:04:41.635Z,10.17
2022-10-30T02:07:08.587Z,9.20
2022-10-30T02:09:35.516Z,9.87
2022-10-30T02:12:03.290Z,10.47
2022-10-30T02:14:53.080Z,9.43
2022-10-30T02:17:20.771Z,9.03
2022-10-30T02:19:47.626Z,8.60
2022-10-30T02:22:14.568Z,9.10
2022-10-30T02:24:41.378Z,10.00
2022-10-30T02:27:08.113Z,8.90
2022-10-30T02:29:34.821Z,9.60
2022-10-30T02:32:01.843Z,10.00
2022-10-30T02:34:28.513Z,9.10
2022-10-30T02:36:55.257Z,10.10
2022-10-30T02:39:22.012Z,10.03
2022-10-30T02:41:48.982Z,10.17
2022-10-30T02:44:15.820Z,10.10
2022-10-30T02:46:42.700Z,10.67
2022-10-30T02:49:09.483Z,10.47
2022-10-30T02:51:36.270Z,10.17
2022-10-30T02:54:03.008Z,11.00
2022-10-30T02:56:29.728Z,11.00
2022-10-30T02:58:56.592Z,10.50
2022-10-30T03:01:23.611Z,10.23
2022-10-30T03:03:51.027Z,10.80
2022-10-30T03:06:18.435Z,10.00
2022-10-30T03:08:45.200Z,10.37
2022-10-30T03:11:17.625Z,10.63
2022-10-30T03:13:45.526Z,10.03
2022-10-30T03:16:24.891Z,9.60
2022-10-30T03:18:52.715Z,10.03
2022-10-30T03:21:21.955Z,9.90
2022-10-30T03:23:50.662Z,9.80
2022-10-30T03:26:18.266Z,10.77
2022-10-30T03:28:45.114Z,11.10
2022-10-30T03:31:14.187Z,9.73
2022-10-30T03:33:41.461Z,10.30
2022-10-30T03:36:10.423Z,10.67
2022-10-30T03:38:37.475Z,10.03
2022-10-30T03:41:05.775Z,9.50
2022-10-30T03:43:33.021Z,9.47
2022-10-30T03:45:59.690Z,9.90
2022-10-30T03:48:28.627Z,9.37
2022-10-30T03:50:57.100Z,10.87
2022-10-30T03:53:26.188Z,10.50
2022-10-30T03:55:56.816Z,9.50
2022-10-30T03:58:23.752Z,10.10
2022-10-30T04:00:50.422Z,9.70
2022-10-30T04:03:17.145Z,9.60
2022-10-30T04:05:43.890Z,9.93
2022-10-30T04:08:14.591Z,10.07
2022-10-30T04:10:46.178Z,9.80
2022-10-30T04:13:15.079Z,9.27
2022-10-30T04:15:42.580Z,8.83
2022-10-30T04:18:13.706Z,9.43
2022-10-30T04:20:40.757Z,9.63
2022-10-30T04:23:10.493Z,8.80
2022-10-30T04:25:37.147Z,10.60
2022-10-30T04:28:04.568Z,10.10
2022-10-30T04:30:35.296Z,9.47
2022-10-30T04:33:03.432Z,9.40
2022-10-30T04:35:32.659Z,10.00
2022-10-30T04:38:13.964Z,9.00
2022-10-30T04:40:43.170Z,8.73
2022-10-30T04:43:10.977Z,8.60
2022-10-30T04:45:37.944Z,9.10
2022-10-30T04:48:07.588Z,9.20
2022-10-30T04:50:35.045Z,8.43
2022-10-30T04:53:06.812Z,9.20
2022-10-30T04:55:34.897Z,9.37
2022-10-30T04:58:04.934Z,9.23
2022-10-30T05:00:32.334Z,8.93
2022-10-30T05:03:01.106Z,8.73
2022-10-30T05:05:29.414Z,9.47
2022-10-30T05:07:56.674Z,8.50
2022-10-30T05:10:24.326Z,8.90
2022-10-30T05:12:53.494Z,9.47
2022-10-30T05:15:20.505Z,9.33
2022-10-30T05:17:52.490Z,8.20
2022-10-30T05:20:19.346Z,8.87
2022-10-30T05:22:46.449Z,8.33
2022-10-30T05:25:13.208Z,8.27
2022-10-30T05:27:39.903Z,8.50
2022-10-30T05:30:07.168Z,8.73
2022-10-30T05:32:33.869Z,8.10
2022-10-30T05:35:00.545Z,8.80
2022-10-30T05:37:27.349Z,8.90
2022-10-30T05:39:54.020Z,8.90
2022-10-30T05:42:20.813Z,9.00
2022-10-30T05:45:00.469Z,8.60
2022-10-30T05:47:28.355Z,8.53
2022-10-30T05:49:55.029Z,8.83
2022-10-30T05:52:21.851Z,9.83
2022-10-30T05:54:48.522Z,9.40
2022-10-30T05:57:15.168Z,8.40
2022-10-30T05:59:41.821Z,8.50
2022-10-30T06:02:08.609Z,7.57
2022-10-30T06:04:35.274Z,7.90
2022-10-30T06:07:01.994Z,8.40
2022-10-30T06:09:28.658Z,9.77
2022-10-30T06:11:55.619Z,8.70
2022-10-30T06:14:22.343Z,8.50
2022-10-30T06:16:50.104Z,7.63
2022-10-30T06:19:18.546Z,8.40
2022-10-30T06:21:46.313Z,8.53
2022-10-30T06:24:13.428Z,7.70
2022-10-30T06:26:40.236Z,8.73
2022-10-30T06:29:06.972Z,8.30
2022-10-30T06:31:33.735Z,9.93
2022-10-30T06:34:00.530Z,9.33
2022-10-30T06:36:27.221Z,8.60
2022-10-30T06:38:53.880Z,8.83
2022-10-30T06:41:23.353Z,9.17
2022-10-30T06:43:52.478Z,8.63
2022-10-30T06:46:19.132Z,9.00
2022-10-30T06:48:45.800Z,9.37
2022-10-30T06:51:15.777Z,7.40
2022-10-30T06:53:42.482Z,8.80
2022-10-30T06:56:09.768Z,8.30
2022-10-30T06:58:39.161Z,9.10
2022-10-30T07:01:09.427Z,8.20
2022-10-30T07:03:36.140Z,7.93
2022-10-30T07:06:03.572Z,9.17
2022-10-30T07:08:30.438Z,8.20
2022-10-30T07:10:58.630Z,9.07
2022-10-30T07:13:25.592Z,9.77
2022-10-30T07:15:52.334Z,9.10
2022-10-30T07:18:19.036Z,7.47
2022-10-30T07:20:45.736Z,8.77
2022-10-30T07:23:12.452Z,7.80
2022-10-30T07:25:39.099Z,7.50
2022-10-30T07:28:05.776Z,8.03
2022-10-30T07:30:32.463Z,8.70
2022-10-30T07:33:04.811Z,9.83
2022-10-30T07:35:33.040Z,8.10
2022-10-30T07:38:07.551Z,8.93
2022-10-30T07:40:34.351Z,8.40
2022-10-30T07:43:03.045Z,8.30
2022-10-30T07:45:30.331Z,8.73
2022-10-30T07:47:57.851Z,8.20
2022-10-30T07:50:25.281Z,8.30
2022-10-30T07:52:51.960Z,8.50
2022-10-30T07:55:18.819Z,7.70
2022-10-30T07:57:45.528Z,8.60
2022-10-30T08:00:14.536Z,7.70
2022-10-30T08:02:42.163Z,8.50
2022-10-30T08:05:09.740Z,8.77
2022-10-30T08:07:38.248Z,8.53
2022-10-30T08:10:06.763Z,7.63
2022-10-30T08:12:34.936Z,8.07
2022-10-30T08:15:05.250Z,8.10
2022-10-30T08:17:32.177Z,8.43
2022-10-30T08:19:58.899Z,8.03
2022-10-30T08:22:25.741Z,7.30
2022-10-30T08:24:52.534Z,6.73
2022-10-30T08:27:19.249Z,7.70
2022-10-30T08:29:46.057Z,7.37
2022-10-30T08:32:13.036Z,7.33
2022-10-30T08:34:40.159Z,6.30
2022-10-30T08:37:07.966Z,7.60
2022-10-30T08:39:34.763Z,7.00
2022-10-30T08:42:01.504Z,7.47
2022-10-30T08:44:28.276Z,6.53
2022-10-30T08:46:55.107Z,6.47
2022-10-30T08:49:21.987Z,6.57
2022-10-30T08:51:48.732Z,7.50
2022-10-30T08:54:15.406Z,7.00
2022-10-30T08:56:42.200Z,7.47
2022-10-30T08:59:09.017Z,7.47
2022-10-30T09:01:36.845Z,7.10
2022-10-30T09:04:03.978Z,5.60
2022-10-30T09:06:31.830Z,6.60
2022-10-30T09:08:58.861Z,6.17
2022-10-30T09:11:26.010Z,6.27
2022-10-30T09:13:52.812Z,6.30
2022-10-30T09:16:22.276Z,5.23
2022-10-30T09:18:49.088Z,6.10
2022-10-30T09:21:15.863Z,6.40
2022-10-30T09:23:43.888Z,6.37
2022-10-30T09:26:13.453Z,6.27
2022-10-30T09:28:42.174Z,5.80
2022-10-30T09:31:09.036Z,6.07
2022-10-30T09:33:35.722Z,5.80
2022-10-30T09:36:02.926Z,5.07
2022-10-30T09:38:29.808Z,5.40
2022-10-30T09:41:13.765Z,5.67
2022-10-30T09:43:55.562Z,5.60
2022-10-30T09:46:33.006Z,6.30
2022-10-30T09:49:14.051Z,5.13
2022-10-30T09:51:54.528Z,4.90
2022-10-30T09:54:44.134Z,4.50
2022-10-30T09:57:25.178Z,5.17
2022-10-30T10:00:03.288Z,5.90
2022-10-30T10:02:37.476Z,5.87
2022-10-30T10:05:13.379Z,5.40
2022-10-30T10:08:04.008Z,5.40
2022-10-30T10:10:36.459Z,5.33
2022-10-30T10:13:05.699Z,5.30
2022-10-30T10:15:53.970Z,4.73
2022-10-30T10:18:29.683Z,4.73
2022-10-30T10:21:02.033Z,5.70
2022-10-30T10:23:51.407Z,5.83
2022-10-30T10:26:23.981Z,5.40
2022-10-30T10:29:20.536Z,5.37
2022-10-30T10:32:17.757Z,5.27
2022-10-30T10:34:52.625Z,5.40
2022-10-30T10:37:54.283Z,5.13
2022-10-30T10:40:46.391Z,5.10
2022-10-30T10:43:31.389Z,4.90
2022-10-30T10:46:35.996Z,4.30
2022-10-30T10:49:21.384Z,4.33
2022-10-30T10:52:03.802Z,4.80
2022-10-30T10:54:40.909Z,4.93
2022-10-30T10:57:13.849Z,4.80
2022-10-30T10:59:52.097Z,4.83
2022-10-30T11:02:40.357Z,4.60
2022-10-30T11:05:13.200Z,5.60
2022-10-30T11:07:48.641Z,4.90
2022-10-30T11:10:17.982Z,3.97
2022-10-30T11:12:44.775Z,4.90
2022-10-30T11:15:40.235Z,4.40
2022-10-30T11:18:09.284Z,4.43
2022-10-30T11:20:59.889Z,4.70
2022-10-30T11:23:33.935Z,3.70
2022-10-30T11:26:02.400Z,3.90
2022-10-30T11:28:48.676Z,3.70
2022-10-30T11:31:40.633Z,4.97
2022-10-30T11:34:20.432Z,4.27
2022-10-30T11:36:52.393Z,4.40
2022-10-30T11:39:24.432Z,4.10
2022-10-30T11:41:57.272Z,4.33
2022-10-30T11:44:50.625Z,3.97
2022-10-30T11:47:24.386Z,4.50
2022-10-30T11:49:59.982Z,3.63
2022-10-30T11:52:27.887Z,3.70
2022-10-30T11:55:03.117Z,4.03
2022-10-30T11:57:37.323Z,4.70
2022-10-30T12:00:22.524Z,4.03
2022-10-30T12:02:52.286Z,3.20
2022-10-30T12:05:29.974Z,3.77
2022-10-30T12:08:08.698Z,3.60
2022-10-30T12:10:47.393Z,3.20
2022-10-30T12:13:16.277Z,3.83
2022-10-30T12:15:44.793Z,3.20
2022-10-30T12:18:25.433Z,3.63
2022-10-30T12:20:55.505Z,3.17
2022-10-30T12:23:25.928Z,4.20
2022-10-30T12:25:55.730Z,4.20
2022-10-30T12:28:25.589Z,5.20
2022-10-30T12:31:00.648Z,3.97
2022-10-30T12:33:42.435Z,4.63
2022-10-30T12:36:22.306Z,4.50
2022-10-30T12:38:59.751Z,4.30
2022-10-30T12:41:56.984Z,4.50
2022-10-30T12:44:59.442Z,5.97
2022-10-30T12:47:26.151Z,3.33
2022-10-30T12:50:00.436Z,4.07
2022-10-30T12:52:45.682Z,4.23
2022-10-30T12:55:26.853Z,4.93
2022-10-30T12:58:15.036Z,5.27
2022-10-30T13:00:51.295Z,5.20
2022-10-30T13:03:34.694Z,4.40
2022-10-30T13:06:07.102Z,4.60
2022-10-30T13:08:39.023Z,5.17
2022-10-30T13:11:15.291Z,4.27
2022-10-30T13:13:47.018Z,4.30
2022-10-30T13:16:18.823Z,4.33
2022-10-30T13:18:45.643Z,4.00
2022-10-30T13:21:36.532Z,4.40
2022-10-30T13:24:13.869Z,4.40
2022-10-30T13:27:04.916Z,4.13
2022-10-30T13:29:53.621Z,3.63
2022-10-30T13:32:39.205Z,3.73
2022-10-30T13:35:38.333Z,4.33
2022-10-30T13:38:29.350Z,4.30
2022-10-30T13:41:08.436Z,4.03
2022-10-30T13:43:42.977Z,3.73
2022-10-30T13:46:37.621Z,4.10
2022-10-30T13:49:10.739Z,3.90
2022-10-30T13:51:50.152Z,3.97
2022-10-30T13:54:25.471Z,4.83
2022-10-30T13:56:53.431Z,5.40
2022-10-30T13:59:48.356Z,4.50
2022-10-30T14:02:23.596Z,5.83
2022-10-30T14:05:05.862Z,5.00
2022-10-30T14:07:55.418Z,4.53
2022-10-30T14:10:43.805Z,5.87
2022-10-30T14:13:44.631Z,4.80
2022-10-30T14:16:30.158Z,4.77
2022-10-30T14:19:07.117Z,4.63
2022-10-30T14:21:52.992Z,5.00
2022-10-30T14:24:28.644Z,5.77
2022-10-30T14:27:10.889Z,5.03
2022-10-30T14:29:50.623Z,4.73
2022-10-30T14:32:20.358Z,4.30
2022-10-30T14:34:55.786Z,4.77
2022-10-30T14:37:29.056Z,5.33
2022-10-30T14:39:57.410Z,5.00
2022-10-30T14:42:40.604Z,5.90
2022-10-30T14:45:11.392Z,4.77
2022-10-30T14:48:01.897Z,4.90
2022-10-30T14:50:43.871Z,5.13
2022-10-30T14:53:10.808Z,5.60
2022-10-30T14:55:56.244Z,6.30
2022-10-30T14:58:26.411Z,4.90
2022-10-30T15:01:22.168Z,6.13
2022-10-30T15:04:23.040Z,5.97
2022-10-30T15:07:09.200Z,6.77
2022-10-30T15:10:03.794Z,7.70
2022-10-30T15:13:02.496Z,8.67
2022-10-30T15:15:30.585Z,7.63
2022-10-30T15:18:01.698Z,8.43
2022-10-30T15:20:33.169Z,8.73
2022-10-30T15:23:04.755Z,8.07
2022-10-30T15:25:38.316Z,8.20
2022-10-30T15:28:05.807Z,8.20
2022-10-30T15:30:32.772Z,8.43
2022-10-30T15:32:59.646Z,8.57
2022-10-30T15:35:28.470Z,9.40
2022-10-30T15:38:09.796Z,8.63
2022-10-30T15:40:37.832Z,8.57
2022-10-30T15:43:07.634Z,8.90
2022-10-30T15:45:46.710Z,9.17
2022-10-30T15:48:19.298Z,7.93
2022-10-30T15:51:01.123Z,8.23
2022-10-30T15:53:56.642Z,8.47
2022-10-30T15:56:26.807Z,9.23
2022-10-30T15:59:04.379Z,9.33
2022-10-30T16:01:34.518Z,10.20
2022-10-30T16:04:01.559Z,12.83
2022-10-30T16:06:31.401Z,10.77
2022-10-30T16:08:58.598Z,10.70
2022-10-30T16:11:26.845Z,8.67
2022-10-30T16:13:53.951Z,9.70
2022-10-30T16:16:26.245Z,9.33
2022-10-30T16:18:57.771Z,9.33
2022-10-30T16:21:27.413Z,9.10
2022-10-30T16:23:58.411Z,10.13
2022-10-30T16:26:30.202Z,11.20
2022-10-30T16:28:57.744Z,10.00
2022-10-30T16:31:28.921Z,9.80
2022-10-30T16:33:58.846Z,10.40
2022-10-30T16:36:26.095Z,10.30
2022-10-30T16:38:54.401Z,10.27
2022-10-30T16:41:26.591Z,9.63
2022-10-30T16:44:25.478Z,10.13
2022-10-30T16:47:10.110Z,9.43
2022-10-30T16:49:37.949Z,11.13
2022-10-30T16:52:13.310Z,11.00
2022-10-30T16:54:42.249Z,11.03
2022-10-30T16:57:27.144Z,11.20
2022-10-30T16:59:55.449Z,10.87
2022-10-30T17:02:26.461Z,10.87
2022-10-30T17:04:58.242Z,11.17
2022-10-30T17:07:27.013Z,11.93
2022-10-30T17:09:56.946Z,11.77
2022-10-30T17:12:29.191Z,11.00
2022-10-30T17:15:13.002Z,14.13
2022-10-30T17:17:42.023Z,12.00
2022-10-30T17:20:30.860Z,11.33
2022-10-30T17:23:18.652Z,13.73
2022-10-30T17:25:46.218Z,13.90
2022-10-30T17:28:33.401Z,14.57
2022-10-30T17:31:18.640Z,14.00
2022-10-30T17:34:15.140Z,14.43
2022-10-30T17:36:42.503Z,18.87
2022-10-30T17:39:09.803Z,24.67
2022-10-30T17:41:38.896Z,18.80
2022-10-30T17:44:08.110Z,16.70
2022-10-30T17:46:35.060Z,21.23
2022-10-30T17:49:02.397Z,12.87
2022-10-30T17:51:29.519Z,13.50
2022-10-30T17:53:56.492Z,12.20
2022-10-30T17:56:30.006Z,12.27
2022-10-30T17:58:57.304Z,17.77
2022-10-30T18:01:26.872Z,17.20
2022-10-30T18:03:55.612Z,11.73
2022-10-30T18:06:25.847Z,11.73
2022-10-30T18:08:53.671Z,10.60
2022-10-30T18:11:23.583Z,12.60
2022-10-30T18:13:51.931Z,11.60
2022-10-30T18:16:20.324Z,13.33
2022-10-30T18:18:47.278Z,14.80
2022-10-30T18:21:19.121Z,14.17
2022-10-30T18:23:52.482Z,15.40
2022-10-30T18:26:22.936Z,17.20
2022-10-30T18:28:50.260Z,18.50
2022-10-30T18:31:22.351Z,13.70
2022-10-30T18:33:49.579Z,11.60
2022-10-30T18:36:21.706Z,11.20
2022-10-30T18:38:49.085Z,11.27
2022-10-30T18:41:22.954Z,12.10
2022-10-30T18:43:49.848Z,12.40
2022-10-30T18:46:17.096Z,11.10
2022-10-30T18:48:45.617Z,12.40
2022-10-30T18:51:20.467Z,12.27
2022-10-30T18:53:53.523Z,11.40
2022-10-30T18:56:26.861Z,12.80
2022-10-30T18:58:58.755Z,10.73
2022-10-30T19:01:32.177Z,11.57
2022-10-30T19:04:03.989Z,10.47
2022-10-30T19:06:32.907Z,10.13
2022-10-30T19:08:59.744Z,10.87
2022-10-30T19:11:30.213Z,10.10
2022-10-30T19:13:58.776Z,11.10
2022-10-30T19:16:25.939Z,12.27
2022-10-30T19:18:53.135Z,10.10
2022-10-30T19:21:22.489Z,11.30
2022-10-30T19:23:49.889Z,12.20
2022-10-30T19:26:17.788Z,11.23
2022-10-30T19:28:45.947Z,13.37
2022-10-30T19:31:17.742Z,12.00
2022-10-30T19:33:44.958Z,11.37
2022-10-30T19:36:36.626Z,10.13
2022-10-30T19:39:10.087Z,11.47
2022-10-30T19:41:38.964Z,11.63
2022-10-30T19:44:06.203Z,11.37
2022-10-30T19:46:33.930Z,11.97
2022-10-30T19:49:01.683Z,11.13
2022-10-30T19:51:29.590Z,11.13
2022-10-30T19:53:56.542Z,11.10
2022-10-30T19:56:23.677Z,11.90
2022-10-30T19:58:50.811Z,11.87
2022-10-30T20:01:18.018Z,11.23
2022-10-30T20:03:45.187Z,11.93
2022-10-30T20:06:13.188Z,10.03
2022-10-30T20:08:40.109Z,10.80
2022-10-30T20:11:07.088Z,11.10
2022-10-30T20:13:34.138Z,11.40
2022-10-30T20:16:05.160Z,9.80
2022-10-30T20:18:35.872Z,10.20
2022-10-30T20:21:05.603Z,11.30
2022-10-30T20:23:32.457Z,13.60
2022-10-30T20:26:28.183Z,11.30
2022-10-30T20:28:56.234Z,10.43
2022-10-30T20:31:23.107Z,11.60
2022-10-30T20:33:50.023Z,10.93
2022-10-30T20:36:16.931Z,10.90
2022-10-30T20:38:44.477Z,11.07
2022-10-30T20:41:24.537Z,12.50
2022-10-30T20:43:52.117Z,13.57
2022-10-30T20:46:19.918Z,14.80
2022-10-30T20:48:47.312Z,12.50
2022-10-30T20:51:14.815Z,12.07
2022-10-30T20:53:41.679Z,11.40
2022-10-30T20:56:08.677Z,10.33
2022-10-30T20:58:35.641Z,9.90
2022-10-30T21:01:02.690Z,11.50
2022-10-30T21:03:30.079Z,12.53
2022-10-30T21:05:59.856Z,11.80
2022-10-30T21:08:28.594Z,12.03
2022-10-30T21:11:03.848Z,12.60
2022-10-30T21:13:30.877Z,11.70
2022-10-30T21:16:05.556Z,11.10
2022-10-30T21:18:32.586Z,12.83
2022-10-30T21:21:08.504Z,11.17
2022-10-30T21:23:35.479Z,10.10
2022-10-30T21:26:04.836Z,11.37
2022-10-30T21:28:32.151Z,10.60
2022-10-30T21:31:03.971Z,11.00
2022-10-30T21:33:32.044Z,10.90
2022-10-30T21:36:12.363Z,11.23
2022-10-30T21:38:47.642Z,11.53
2022-10-30T21:41:17.577Z,11.03
2022-10-30T21:43:48.858Z,10.80
2022-10-30T21:46:15.803Z,10.47
2022-10-30T21:48:43.485Z,11.17
2022-10-30T21:51:22.626Z,11.90
2022-10-30T21:53:50.358Z,10.70
2022-10-30T21:56:20.027Z,11.63
2022-10-30T21:58:47.690Z,11.00
2022-10-30T22:01:16.315Z,11.70
2022-10-30T22:03:43.333Z,10.50
2022-10-30T22:06:12.741Z,11.80
2022-10-30T22:08:39.994Z,11.40
2022-10-30T22:11:09.606Z,11.67
2022-10-30T22:13:37.480Z,10.80
2022-10-30T22:16:05.984Z,11.30
2022-10-30T22:18:33.803Z,11.43
2022-10-30T22:21:02.837Z,12.00
2022-10-30T22:23:30.689Z,10.47
2022-10-30T22:25:59.850Z,11.17
2022-10-30T22:28:28.168Z,12.23
2022-10-30T22:30:55.001Z,10.30
2022-10-30T22:33:21.960Z,10.70
2022-10-30T22:35:48.961Z,11.07
2022-10-30T22:38:15.760Z,10.70
2022-10-30T22:40:42.670Z,11.50
2022-10-30T22:43:09.689Z,10.70
2022-10-30T22:45:36.661Z,9.97
2022-10-30T22:48:03.679Z,10.87
2022-10-30T22:50:30.762Z,10.03
2022-10-30T22:52:59.090Z,10.70
2022-10-30T22:55:28.095Z,11.40
2022-10-30T22:57:54.892Z,11.13
2022-10-30T23:00:27.667Z,9.60
2022-10-30T23:02:55.013Z,9.90
2022-10-30T23:05:22.923Z,11.50
2022-10-30T23:07:51.939Z,11.50
2022-10-30T23:10:18.826Z,10.43
2022-10-30T23:12:45.489Z,10.43
2022-10-30T23:15:12.332Z,10.57
2022-10-30T23:17:39.017Z,11.03
2022-10-30T23:20:08.027Z,12.77
2022-10-30T23:22:34.862Z,10.60
2022-10-30T23:25:01.548Z,10.33
2022-10-30T23:27:28.311Z,11.10
2022-10-30T23:29:54.968Z,11.50
2022-10-30T23:32:21.710Z,9.87
2022-10-30T23:34:48.579Z,10.20
2022-10-30T23:37:15.387Z,11.27
2022-10-30T23:39:42.174Z,10.87
2022-10-30T23:42:08.960Z,11.10
2022-10-30T23:44:35.686Z,11.53
2022-10-30T23:47:02.411Z,11.30
2022-10-30T23:49:33.914Z,10.73
2022-10-30T23:52:01.130Z,11.13
2022-10-30T23:54:27.890Z,10.40
2022-10-30T23:56:54.602Z,11.33
2022-10-30T23:59:21.311Z,11.20
